sensor_id;sensor_type;location;lat;lon;timestamp;P1;durP1;ratioP1;P2;durP2;ratioP2
34497;SDS011;20744;50.938;7.286;2022-11-15T00:02:10;17.70;;;9.07;;
34497;SDS011;20744;50.938;7.286;2022-11-15T00:04:37;16.50;;;9.55;;
34497;SDS011;20744;50.938;7.286;2022-11-15T00:07:04;15.70;;;9.50;;
34497;SDS011;20744;50.938;7.286;2022-11-15T00:09:33;13.18;;;9.00;;
34497;SDS011;20744;50.938;7.286;2022-11-15T00:12:00;14.80;;;9.30;;
34497;SDS011;20744;50.938;7.286;2022-11-15T00:14:27;19.02;;;10.05;;
34497;SDS011;20744;50.938;7.286;2022-11-15T00:16:55;13.43;;;8.73;;
34497;SDS011;20744;50.938;7.286;2022-11-15T00:19:22;17.63;;;9.48;;
34497;SDS011;20744;50.938;7.286;2022-11-15T00:21:49;13.40;;;9.70;;
34497;SDS011;20744;50.938;7.286;2022-11-15T00:24:16;15.48;;;9.40;;
34497;SDS011;20744;50.938;7.286;2022-11-15T00:26:45;16.15;;;9.60;;
34497;SDS011;20744;50.938;7.286;2022-11-15T00:29:12;14.63;;;10.13;;
34497;SDS011;20744;50.938;7.286;2022-11-15T00:31:39;15.93;;;9.55;;
34497;SDS011;20744;50.938;7.286;2022-11-15T00:34:07;17.75;;;10.00;;
34497;SDS011;20744;50.938;7.286;2022-11-15T00:36:34;15.48;;;9.55;;
34497;SDS011;20744;50.938;7.286;2022-11-15T00:39:03;13.15;;;8.65;;
34497;SDS011;20744;50.938;7.286;2022-11-15T00:41:30;15.48;;;9.63;;
34497;SDS011;20744;50.938;7.286;2022-11-15T00:43:59;15.82;;;9.55;;
34497;SDS011;20744;50.938;7.286;2022-11-15T00:46:26;14.43;;;9.77;;
34497;SDS011;20744;50.938;7.286;2022-11-15T00:48:53;12.02;;;8.77;;
34497;SDS011;20744;50.938;7.286;2022-11-15T00:51:21;14.63;;;9.40;;
34497;SDS011;20744;50.938;7.286;2022-11-15T00:53:48;14.43;;;8.90;;
34497;SDS011;20744;50.938;7.286;2022-11-15T00:56:15;12.45;;;9.05;;
34497;SDS011;20744;50.938;7.286;2022-11-15T00:58:42;12.93;;;8.13;;
34497;SDS011;20744;50.938;7.286;2022-11-15T01:01:12;14.63;;;9.50;;
34497;SDS011;20744;50.938;7.286;2022-11-15T01:03:40;14.43;;;9.20;;
34497;SDS011;20744;50.938;7.286;2022-11-15T01:06:07;15.93;;;9.75;;
34497;SDS011;20744;50.938;7.286;2022-11-15T01:08:35;16.85;;;10.85;;
34497;SDS011;20744;50.938;7.286;2022-11-15T01:11:03;23.75;;;12.23;;
34497;SDS011;20744;50.938;7.286;2022-11-15T01:13:30;13.77;;;10.30;;
34497;SDS011;20744;50.938;7.286;2022-11-15T01:15:58;17.80;;;9.73;;
34497;SDS011;20744;50.938;7.286;2022-11-15T01:18:26;16.50;;;10.27;;
34497;SDS011;20744;50.938;7.286;2022-11-15T01:20:53;19.40;;;9.50;;
34497;SDS011;20744;50.938;7.286;2022-11-15T01:23:20;15.70;;;9.38;;
34497;SDS011;20744;50.938;7.286;2022-11-15T01:25:48;13.88;;;9.20;;
34497;SDS011;20744;50.938;7.286;2022-11-15T01:28:15;13.82;;;8.88;;
34497;SDS011;20744;50.938;7.286;2022-11-15T01:30:42;13.40;;;9.52;;
34497;SDS011;20744;50.938;7.286;2022-11-15T01:33:09;15.32;;;8.40;;
34497;SDS011;20744;50.938;7.286;2022-11-15T01:35:39;16.25;;;9.90;;
34497;SDS011;20744;50.938;7.286;2022-11-15T01:38:06;15.77;;;9.85;;
34497;SDS011;20744;50.938;7.286;2022-11-15T01:40:34;16.80;;;9.60;;
34497;SDS011;20744;50.938;7.286;2022-11-15T01:45:43;14.15;;;10.00;;
34497;SDS011;20744;50.938;7.286;2022-11-15T01:48:11;18.35;;;10.55;;
34497;SDS011;20744;50.938;7.286;2022-11-15T01:50:40;14.98;;;10.23;;
34497;SDS011;20744;50.938;7.286;2022-11-15T01:53:07;14.98;;;10.20;;
34497;SDS011;20744;50.938;7.286;2022-11-15T01:55:35;15.50;;;10.45;;
34497;SDS011;20744;50.938;7.286;2022-11-15T01:58:03;14.32;;;10.50;;
34497;SDS011;20744;50.938;7.286;2022-11-15T02:00:31;18.13;;;10.80;;
34497;SDS011;20744;50.938;7.286;2022-11-15T02:02:58;19.88;;;10.52;;
34497;SDS011;20744;50.938;7.286;2022-11-15T02:05:26;19.75;;;11.32;;
34497;SDS011;20744;50.938;7.286;2022-11-15T02:07:54;19.90;;;11.18;;
34497;SDS011;20744;50.938;7.286;2022-11-15T02:10:23;14.80;;;10.07;;
34497;SDS011;20744;50.938;7.286;2022-11-15T02:12:50;17.92;;;10.40;;
34497;SDS011;20744;50.938;7.286;2022-11-15T02:15:18;15.27;;;9.95;;
34497;SDS011;20744;50.938;7.286;2022-11-15T02:17:49;23.65;;;10.40;;
34497;SDS011;20744;50.938;7.286;2022-11-15T02:20:30;15.02;;;10.15;;
34497;SDS011;20744;50.938;7.286;2022-11-15T02:25:49;15.65;;;9.50;;
34497;SDS011;20744;50.938;7.286;2022-11-15T02:28:33;18.27;;;9.70;;
34497;SDS011;20744;50.938;7.286;2022-11-15T02:31:07;13.52;;;9.57;;
34497;SDS011;20744;50.938;7.286;2022-11-15T02:33:39;12.80;;;9.15;;
34497;SDS011;20744;50.938;7.286;2022-11-15T02:36:10;14.57;;;9.48;;
34497;SDS011;20744;50.938;7.286;2022-11-15T02:38:40;14.52;;;8.80;;
34497;SDS011;20744;50.938;7.286;2022-11-15T02:41:09;15.35;;;8.65;;
34497;SDS011;20744;50.938;7.286;2022-11-15T02:43:38;18.10;;;8.57;;
34497;SDS011;20744;50.938;7.286;2022-11-15T02:46:23;13.02;;;8.43;;
34497;SDS011;20744;50.938;7.286;2022-11-15T02:49:13;13.98;;;8.70;;
34497;SDS011;20744;50.938;7.286;2022-11-15T02:51:41;10.90;;;7.95;;
34497;SDS011;20744;50.938;7.286;2022-11-15T02:54:11;14.13;;;7.80;;
34497;SDS011;20744;50.938;7.286;2022-11-15T02:56:39;13.20;;;7.90;;
34497;SDS011;20744;50.938;7.286;2022-11-15T02:59:10;10.88;;;7.65;;
34497;SDS011;20744;50.938;7.286;2022-11-15T03:01:50;13.27;;;7.10;;
34497;SDS011;20744;50.938;7.286;2022-11-15T03:04:28;10.27;;;7.13;;
34497;SDS011;20744;50.938;7.286;2022-11-15T03:07:05;12.65;;;6.78;;
34497;SDS011;20744;50.938;7.286;2022-11-15T03:09:39;10.80;;;6.90;;
34497;SDS011;20744;50.938;7.286;2022-11-15T03:12:14;8.82;;;6.30;;
34497;SDS011;20744;50.938;7.286;2022-11-15T03:14:50;11.35;;;6.65;;
34497;SDS011;20744;50.938;7.286;2022-11-15T03:17:25;11.23;;;6.83;;
34497;SDS011;20744;50.938;7.286;2022-11-15T03:19:56;10.80;;;6.80;;
34497;SDS011;20744;50.938;7.286;2022-11-15T03:22:27;9.93;;;6.57;;
34497;SDS011;20744;50.938;7.286;2022-11-15T03:24:57;9.48;;;6.60;;
34497;SDS011;20744;50.938;7.286;2022-11-15T03:27:28;9.20;;;6.93;;
34497;SDS011;20744;50.938;7.286;2022-11-15T03:30:00;9.95;;;6.85;;
34497;SDS011;20744;50.938;7.286;2022-11-15T03:32:30;9.95;;;6.72;;
34497;SDS011;20744;50.938;7.286;2022-11-15T03:35:02;9.15;;;7.38;;
34497;SDS011;20744;50.938;7.286;2022-11-15T03:37:34;9.93;;;6.53;;
34497;SDS011;20744;50.938;7.286;2022-11-15T03:40:04;7.95;;;6.60;;
34497;SDS011;20744;50.938;7.286;2022-11-15T03:42:33;8.25;;;6.70;;
34497;SDS011;20744;50.938;7.286;2022-11-15T03:45:02;10.45;;;6.55;;
34497;SDS011;20744;50.938;7.286;2022-11-15T03:47:38;8.57;;;6.85;;
34497;SDS011;20744;50.938;7.286;2022-11-15T03:50:08;8.10;;;6.72;;
34497;SDS011;20744;50.938;7.286;2022-11-15T03:52:39;13.77;;;6.63;;
34497;SDS011;20744;50.938;7.286;2022-11-15T03:55:08;9.85;;;6.70;;
34497;SDS011;20744;50.938;7.286;2022-11-15T03:57:37;8.10;;;6.20;;
34497;SDS011;20744;50.938;7.286;2022-11-15T04:00:04;10.57;;;6.28;;
34497;SDS011;20744;50.938;7.286;2022-11-15T04:02:32;10.32;;;6.35;;
34497;SDS011;20744;50.938;7.286;2022-11-15T04:05:00;10.35;;;6.25;;
34497;SDS011;20744;50.938;7.286;2022-11-15T04:07:27;7.13;;;5.78;;
34497;SDS011;20744;50.938;7.286;2022-11-15T04:09:54;9.13;;;6.28;;
34497;SDS011;20744;50.938;7.286;2022-11-15T04:12:30;8.18;;;6.38;;
34497;SDS011;20744;50.938;7.286;2022-11-15T04:14:59;10.88;;;6.00;;
34497;SDS011;20744;50.938;7.286;2022-11-15T04:17:34;7.80;;;6.43;;
34497;SDS011;20744;50.938;7.286;2022-11-15T04:20:03;7.95;;;6.20;;
34497;SDS011;20744;50.938;7.286;2022-11-15T04:22:51;8.93;;;6.15;;
34497;SDS011;20744;50.938;7.286;2022-11-15T04:25:36;9.60;;;5.75;;
34497;SDS011;20744;50.938;7.286;2022-11-15T04:28:03;7.68;;;6.32;;
34497;SDS011;20744;50.938;7.286;2022-11-15T04:30:30;8.93;;;6.22;;
34497;SDS011;20744;50.938;7.286;2022-11-15T04:32:57;7.05;;;5.80;;
34497;SDS011;20744;50.938;7.286;2022-11-15T04:35:26;8.25;;;5.35;;
34497;SDS011;20744;50.938;7.286;2022-11-15T04:37:53;10.23;;;5.75;;
34497;SDS011;20744;50.938;7.286;2022-11-15T04:40:18;8.38;;;5.68;;
34497;SDS011;20744;50.938;7.286;2022-11-15T04:42:45;8.02;;;5.97;;
34497;SDS011;20744;50.938;7.286;2022-11-15T04:45:12;9.43;;;5.75;;
34497;SDS011;20744;50.938;7.286;2022-11-15T04:47:39;8.63;;;5.65;;
34497;SDS011;20744;50.938;7.286;2022-11-15T04:50:09;7.07;;;5.57;;
34497;SDS011;20744;50.938;7.286;2022-11-15T04:52:39;7.15;;;5.45;;
34497;SDS011;20744;50.938;7.286;2022-11-15T04:55:07;10.70;;;5.60;;
34497;SDS011;20744;50.938;7.286;2022-11-15T04:57:34;8.07;;;5.30;;
34497;SDS011;20744;50.938;7.286;2022-11-15T05:00:01;7.60;;;5.18;;
34497;SDS011;20744;50.938;7.286;2022-11-15T05:02:29;8.68;;;5.43;;
34497;SDS011;20744;50.938;7.286;2022-11-15T05:05:16;6.93;;;5.28;;
34497;SDS011;20744;50.938;7.286;2022-11-15T05:07:43;9.38;;;4.75;;
34497;SDS011;20744;50.938;7.286;2022-11-15T05:10:11;6.72;;;5.43;;
34497;SDS011;20744;50.938;7.286;2022-11-15T05:12:37;8.60;;;5.03;;
34497;SDS011;20744;50.938;7.286;2022-11-15T05:15:05;7.00;;;4.85;;
34497;SDS011;20744;50.938;7.286;2022-11-15T05:17:32;7.00;;;5.38;;
34497;SDS011;20744;50.938;7.286;2022-11-15T05:19:59;7.72;;;5.03;;
34497;SDS011;20744;50.938;7.286;2022-11-15T05:22:27;6.68;;;4.78;;
34497;SDS011;20744;50.938;7.286;2022-11-15T05:24:55;8.10;;;4.65;;
34497;SDS011;20744;50.938;7.286;2022-11-15T05:27:23;6.15;;;4.70;;
34497;SDS011;20744;50.938;7.286;2022-11-15T05:29:50;5.22;;;4.10;;
34497;SDS011;20744;50.938;7.286;2022-11-15T05:32:17;7.32;;;5.25;;
34497;SDS011;20744;50.938;7.286;2022-11-15T05:34:44;7.10;;;4.55;;
34497;SDS011;20744;50.938;7.286;2022-11-15T05:37:12;5.85;;;4.40;;
34497;SDS011;20744;50.938;7.286;2022-11-15T05:39:39;9.23;;;4.35;;
34497;SDS011;20744;50.938;7.286;2022-11-15T05:42:08;7.10;;;4.10;;
34497;SDS011;20744;50.938;7.286;2022-11-15T05:44:37;7.10;;;4.10;;
34497;SDS011;20744;50.938;7.286;2022-11-15T05:47:08;5.40;;;3.67;;
34497;SDS011;20744;50.938;7.286;2022-11-15T05:49:38;5.95;;;3.70;;
34497;SDS011;20744;50.938;7.286;2022-11-15T05:52:09;5.60;;;3.35;;
34497;SDS011;20744;50.938;7.286;2022-11-15T05:54:38;5.57;;;3.55;;
34497;SDS011;20744;50.938;7.286;2022-11-15T05:57:05;4.75;;;3.30;;
34497;SDS011;20744;50.938;7.286;2022-11-15T05:59:34;7.38;;;3.63;;
34497;SDS011;20744;50.938;7.286;2022-11-15T06:02:02;3.58;;;2.92;;
34497;SDS011;20744;50.938;7.286;2022-11-15T06:04:29;4.90;;;3.60;;
34497;SDS011;20744;50.938;7.286;2022-11-15T06:06:57;4.22;;;3.40;;
34497;SDS011;20744;50.938;7.286;2022-11-15T06:09:25;3.92;;;3.17;;
34497;SDS011;20744;50.938;7.286;2022-11-15T06:11:52;5.32;;;3.50;;
34497;SDS011;20744;50.938;7.286;2022-11-15T06:14:20;5.50;;;3.30;;
34497;SDS011;20744;50.938;7.286;2022-11-15T06:16:47;3.92;;;3.15;;
34497;SDS011;20744;50.938;7.286;2022-11-15T06:19:14;4.95;;;3.42;;
34497;SDS011;20744;50.938;7.286;2022-11-15T06:21:41;6.63;;;3.13;;
34497;SDS011;20744;50.938;7.286;2022-11-15T06:24:07;4.65;;;2.88;;
34497;SDS011;20744;50.938;7.286;2022-11-15T06:26:34;4.40;;;3.00;;
34497;SDS011;20744;50.938;7.286;2022-11-15T06:29:02;7.43;;;3.10;;
34497;SDS011;20744;50.938;7.286;2022-11-15T06:31:30;5.45;;;3.10;;
34497;SDS011;20744;50.938;7.286;2022-11-15T06:33:57;4.22;;;2.70;;
34497;SDS011;20744;50.938;7.286;2022-11-15T06:36:24;6.10;;;2.70;;
34497;SDS011;20744;50.938;7.286;2022-11-15T06:38:51;5.00;;;2.90;;
34497;SDS011;20744;50.938;7.286;2022-11-15T06:41:18;5.18;;;2.72;;
34497;SDS011;20744;50.938;7.286;2022-11-15T06:43:46;4.80;;;2.42;;
34497;SDS011;20744;50.938;7.286;2022-11-15T06:46:12;4.75;;;2.75;;
34497;SDS011;20744;50.938;7.286;2022-11-15T06:48:41;5.20;;;2.40;;
34497;SDS011;20744;50.938;7.286;2022-11-15T06:51:08;4.13;;;2.67;;
34497;SDS011;20744;50.938;7.286;2022-11-15T06:53:35;3.83;;;2.60;;
34497;SDS011;20744;50.938;7.286;2022-11-15T06:56:02;5.78;;;2.60;;
34497;SDS011;20744;50.938;7.286;2022-11-15T06:58:31;4.05;;;2.35;;
34497;SDS011;20744;50.938;7.286;2022-11-15T07:00:59;5.97;;;2.60;;
34497;SDS011;20744;50.938;7.286;2022-11-15T07:03:27;4.53;;;2.50;;
34497;SDS011;20744;50.938;7.286;2022-11-15T07:05:56;3.88;;;2.30;;
34497;SDS011;20744;50.938;7.286;2022-11-15T07:08:24;4.18;;;2.05;;
34497;SDS011;20744;50.938;7.286;2022-11-15T07:10:54;4.10;;;2.03;;
34497;SDS011;20744;50.938;7.286;2022-11-15T07:13:24;2.85;;;2.03;;
34497;SDS011;20744;50.938;7.286;2022-11-15T07:15:51;7.25;;;2.00;;
34497;SDS011;20744;50.938;7.286;2022-11-15T07:18:18;3.60;;;1.88;;
34497;SDS011;20744;50.938;7.286;2022-11-15T07:20:45;3.53;;;1.80;;
34497;SDS011;20744;50.938;7.286;2022-11-15T07:23:14;2.85;;;1.60;;
34497;SDS011;20744;50.938;7.286;2022-11-15T07:25:41;3.65;;;1.65;;
34497;SDS011;20744;50.938;7.286;2022-11-15T07:28:08;3.88;;;1.75;;
34497;SDS011;20744;50.938;7.286;2022-11-15T07:30:35;2.33;;;1.50;;
34497;SDS011;20744;50.938;7.286;2022-11-15T07:33:02;3.22;;;1.60;;
34497;SDS011;20744;50.938;7.286;2022-11-15T07:35:29;2.42;;;1.38;;
34497;SDS011;20744;50.938;7.286;2022-11-15T07:37:56;3.13;;;1.80;;
34497;SDS011;20744;50.938;7.286;2022-11-15T07:40:26;2.08;;;1.30;;
34497;SDS011;20744;50.938;7.286;2022-11-15T07:42:58;2.80;;;1.42;;
34497;SDS011;20744;50.938;7.286;2022-11-15T07:45:25;2.65;;;1.73;;
34497;SDS011;20744;50.938;7.286;2022-11-15T07:47:52;2.67;;;1.30;;
34497;SDS011;20744;50.938;7.286;2022-11-15T07:50:21;2.13;;;1.50;;
34497;SDS011;20744;50.938;7.286;2022-11-15T07:52:52;3.65;;;1.80;;
34497;SDS011;20744;50.938;7.286;2022-11-15T07:55:19;2.33;;;1.42;;
34497;SDS011;20744;50.938;7.286;2022-11-15T07:57:48;3.78;;;1.88;;
34497;SDS011;20744;50.938;7.286;2022-11-15T08:00:15;3.42;;;1.55;;
34497;SDS011;20744;50.938;7.286;2022-11-15T08:02:43;2.92;;;1.60;;
34497;SDS011;20744;50.938;7.286;2022-11-15T08:05:10;3.47;;;2.03;;
34497;SDS011;20744;50.938;7.286;2022-11-15T08:07:37;4.82;;;1.60;;
34497;SDS011;20744;50.938;7.286;2022-11-15T08:10:05;3.17;;;1.40;;
34497;SDS011;20744;50.938;7.286;2022-11-15T08:12:33;2.67;;;1.50;;
34497;SDS011;20744;50.938;7.286;2022-11-15T08:15:02;2.42;;;1.55;;
34497;SDS011;20744;50.938;7.286;2022-11-15T08:17:29;8.25;;;1.50;;
34497;SDS011;20744;50.938;7.286;2022-11-15T08:19:57;5.32;;;1.55;;
34497;SDS011;20744;50.938;7.286;2022-11-15T08:22:24;2.25;;;1.50;;
34497;SDS011;20744;50.938;7.286;2022-11-15T08:24:52;3.80;;;1.65;;
34497;SDS011;20744;50.938;7.286;2022-11-15T08:27:18;3.20;;;1.60;;
34497;SDS011;20744;50.938;7.286;2022-11-15T08:29:47;3.38;;;1.60;;
34497;SDS011;20744;50.938;7.286;2022-11-15T08:32:16;2.70;;;1.58;;
34497;SDS011;20744;50.938;7.286;2022-11-15T08:34:43;3.03;;;1.98;;
34497;SDS011;20744;50.938;7.286;2022-11-15T08:37:10;3.63;;;1.70;;
34497;SDS011;20744;50.938;7.286;2022-11-15T08:39:37;2.60;;;1.45;;
34497;SDS011;20744;50.938;7.286;2022-11-15T08:42:04;4.57;;;1.67;;
34497;SDS011;20744;50.938;7.286;2022-11-15T08:44:31;4.13;;;1.50;;
34497;SDS011;20744;50.938;7.286;2022-11-15T08:46:58;4.82;;;2.10;;
34497;SDS011;20744;50.938;7.286;2022-11-15T08:49:26;3.22;;;1.40;;
34497;SDS011;20744;50.938;7.286;2022-11-15T08:51:53;2.30;;;1.38;;
34497;SDS011;20744;50.938;7.286;2022-11-15T08:54:20;3.58;;;1.70;;
34497;SDS011;20744;50.938;7.286;2022-11-15T08:56:46;3.85;;;1.80;;
34497;SDS011;20744;50.938;7.286;2022-11-15T08:59:13;4.63;;;1.40;;
34497;SDS011;20744;50.938;7.286;2022-11-15T09:01:40;2.55;;;1.58;;
34497;SDS011;20744;50.938;7.286;2022-11-15T09:04:07;4.57;;;1.73;;
34497;SDS011;20744;50.938;7.286;2022-11-15T09:06:35;3.45;;;1.50;;
34497;SDS011;20744;50.938;7.286;2022-11-15T09:09:03;2.25;;;1.40;;
34497;SDS011;20744;50.938;7.286;2022-11-15T09:11:30;5.75;;;1.42;;
34497;SDS011;20744;50.938;7.286;2022-11-15T09:13:57;4.13;;;1.75;;
34497;SDS011;20744;50.938;7.286;2022-11-15T09:16:24;3.58;;;1.48;;
34497;SDS011;20744;50.938;7.286;2022-11-15T09:18:51;3.50;;;1.63;;
34497;SDS011;20744;50.938;7.286;2022-11-15T09:21:18;3.22;;;1.40;;
34497;SDS011;20744;50.938;7.286;2022-11-15T09:23:49;3.88;;;1.50;;
34497;SDS011;20744;50.938;7.286;2022-11-15T09:26:16;2.85;;;1.50;;
34497;SDS011;20744;50.938;7.286;2022-11-15T09:28:43;6.32;;;1.60;;
34497;SDS011;20744;50.938;7.286;2022-11-15T09:31:10;1.88;;;1.17;;
34497;SDS011;20744;50.938;7.286;2022-11-15T09:33:37;3.20;;;1.20;;
34497;SDS011;20744;50.938;7.286;2022-11-15T09:36:05;3.65;;;1.65;;
34497;SDS011;20744;50.938;7.286;2022-11-15T09:38:34;7.30;;;1.30;;
34497;SDS011;20744;50.938;7.286;2022-11-15T09:44:01;1.83;;;1.25;;
34497;SDS011;20744;50.938;7.286;2022-11-15T09:46:43;2.15;;;1.25;;
34497;SDS011;20744;50.938;7.286;2022-11-15T09:49:19;4.05;;;1.10;;
34497;SDS011;20744;50.938;7.286;2022-11-15T09:51:47;5.03;;;1.30;;
34497;SDS011;20744;50.938;7.286;2022-11-15T09:54:20;4.18;;;1.15;;
34497;SDS011;20744;50.938;7.286;2022-11-15T09:56:56;1.55;;;0.88;;
34497;SDS011;20744;50.938;7.286;2022-11-15T09:59:43;1.67;;;0.93;;
34497;SDS011;20744;50.938;7.286;2022-11-15T10:02:20;1.88;;;0.90;;
34497;SDS011;20744;50.938;7.286;2022-11-15T10:04:59;2.28;;;0.75;;
34497;SDS011;20744;50.938;7.286;2022-11-15T10:07:28;4.68;;;0.90;;
34497;SDS011;20744;50.938;7.286;2022-11-15T10:10:00;2.60;;;0.75;;
34497;SDS011;20744;50.938;7.286;2022-11-15T10:12:39;2.88;;;0.85;;
34497;SDS011;20744;50.938;7.286;2022-11-15T10:15:11;2.33;;;0.90;;
34497;SDS011;20744;50.938;7.286;2022-11-15T10:20:31;2.97;;;0.90;;
34497;SDS011;20744;50.938;7.286;2022-11-15T10:23:02;1.95;;;0.90;;
34497;SDS011;20744;50.938;7.286;2022-11-15T10:25:33;3.50;;;1.10;;
34497;SDS011;20744;50.938;7.286;2022-11-15T10:28:06;3.58;;;1.08;;
34497;SDS011;20744;50.938;7.286;2022-11-15T10:30:39;4.13;;;0.93;;
34497;SDS011;20744;50.938;7.286;2022-11-15T10:38:55;1.65;;;0.85;;
34497;SDS011;20744;50.938;7.286;2022-11-15T10:41:29;12.45;;;7.07;;
34497;SDS011;20744;50.938;7.286;2022-11-15T10:46:46;2.72;;;1.10;;
34497;SDS011;20744;50.938;7.286;2022-11-15T10:49:16;4.03;;;1.20;;
34497;SDS011;20744;50.938;7.286;2022-11-15T10:51:44;4.03;;;0.70;;
34497;SDS011;20744;50.938;7.286;2022-11-15T10:54:12;2.53;;;0.95;;
34497;SDS011;20744;50.938;7.286;2022-11-15T10:56:40;6.38;;;0.80;;
34497;SDS011;20744;50.938;7.286;2022-11-15T10:59:14;1.90;;;0.60;;
34497;SDS011;20744;50.938;7.286;2022-11-15T11:01:47;8.05;;;0.70;;
34497;SDS011;20744;50.938;7.286;2022-11-15T11:04:14;1.88;;;0.52;;
34497;SDS011;20744;50.938;7.286;2022-11-15T11:06:48;3.35;;;0.70;;
34497;SDS011;20744;50.938;7.286;2022-11-15T11:09:25;4.82;;;0.80;;
34497;SDS011;20744;50.938;7.286;2022-11-15T11:11:54;2.67;;;0.50;;
34497;SDS011;20744;50.938;7.286;2022-11-15T11:14:22;2.97;;;0.50;;
34497;SDS011;20744;50.938;7.286;2022-11-15T11:16:54;1.50;;;0.52;;
34497;SDS011;20744;50.938;7.286;2022-11-15T11:22:05;3.28;;;0.75;;
34497;SDS011;20744;50.938;7.286;2022-11-15T11:24:38;2.13;;;0.63;;
34497;SDS011;20744;50.938;7.286;2022-11-15T11:29:53;5.20;;;0.65;;
34497;SDS011;20744;50.938;7.286;2022-11-15T11:32:29;4.75;;;0.52;;
34497;SDS011;20744;50.938;7.286;2022-11-15T11:35:00;3.65;;;0.77;;
34497;SDS011;20744;50.938;7.286;2022-11-15T11:37:34;3.83;;;0.77;;
34497;SDS011;20744;50.938;7.286;2022-11-15T11:40:07;3.40;;;0.50;;
34497;SDS011;20744;50.938;7.286;2022-11-15T11:42:41;2.30;;;0.68;;
34497;SDS011;20744;50.938;7.286;2022-11-15T11:45:14;3.28;;;0.80;;
34497;SDS011;20744;50.938;7.286;2022-11-15T11:47:46;4.95;;;0.75;;
34497;SDS011;20744;50.938;7.286;2022-11-15T11:50:15;2.28;;;0.77;;
34497;SDS011;20744;50.938;7.286;2022-11-15T11:52:46;2.85;;;0.65;;
34497;SDS011;20744;50.938;7.286;2022-11-15T11:55:16;4.07;;;0.65;;
34497;SDS011;20744;50.938;7.286;2022-11-15T11:57:46;2.80;;;0.70;;
34497;SDS011;20744;50.938;7.286;2022-11-15T12:00:16;2.38;;;0.80;;
34497;SDS011;20744;50.938;7.286;2022-11-15T12:02:47;5.32;;;0.70;;
34497;SDS011;20744;50.938;7.286;2022-11-15T12:05:16;2.13;;;0.55;;
34497;SDS011;20744;50.938;7.286;2022-11-15T12:07:45;5.35;;;0.70;;
34497;SDS011;20744;50.938;7.286;2022-11-15T12:10:19;1.92;;;0.50;;
34497;SDS011;20744;50.938;7.286;2022-11-15T12:12:49;3.72;;;0.98;;
34497;SDS011;20744;50.938;7.286;2022-11-15T12:15:19;3.92;;;0.73;;
34497;SDS011;20744;50.938;7.286;2022-11-15T12:17:49;1.30;;;0.50;;
34497;SDS011;20744;50.938;7.286;2022-11-15T12:20:17;2.90;;;0.70;;
34497;SDS011;20744;50.938;7.286;2022-11-15T12:22:48;3.47;;;0.65;;
34497;SDS011;20744;50.938;7.286;2022-11-15T12:25:17;3.85;;;0.88;;
34497;SDS011;20744;50.938;7.286;2022-11-15T12:27:47;2.65;;;0.75;;
34497;SDS011;20744;50.938;7.286;2022-11-15T12:30:16;2.95;;;0.80;;
34497;SDS011;20744;50.938;7.286;2022-11-15T12:32:50;2.45;;;1.02;;
34497;SDS011;20744;50.938;7.286;2022-11-15T12:35:33;9.80;;;0.98;;
34497;SDS011;20744;50.938;7.286;2022-11-15T12:38:02;4.50;;;1.00;;
34497;SDS011;20744;50.938;7.286;2022-11-15T12:40:30;3.33;;;0.75;;
34497;SDS011;20744;50.938;7.286;2022-11-15T12:43:02;3.42;;;0.90;;
34497;SDS011;20744;50.938;7.286;2022-11-15T12:45:30;4.05;;;1.00;;
34497;SDS011;20744;50.938;7.286;2022-11-15T12:53:27;2.05;;;0.90;;
34497;SDS011;20744;50.938;7.286;2022-11-15T12:56:17;5.72;;;1.52;;
34497;SDS011;20744;50.938;7.286;2022-11-15T12:58:46;3.45;;;0.90;;
34497;SDS011;20744;50.938;7.286;2022-11-15T13:06:41;3.70;;;1.27;;
34497;SDS011;20744;50.938;7.286;2022-11-15T13:11:56;3.65;;;1.30;;
34497;SDS011;20744;50.938;7.286;2022-11-15T13:14:47;4.03;;;1.40;;
34497;SDS011;20744;50.938;7.286;2022-11-15T13:17:26;3.38;;;1.30;;
34497;SDS011;20744;50.938;7.286;2022-11-15T13:19:57;4.07;;;1.30;;
34497;SDS011;20744;50.938;7.286;2022-11-15T13:22:24;2.63;;;1.23;;
34497;SDS011;20744;50.938;7.286;2022-11-15T13:25:15;4.50;;;1.40;;
34497;SDS011;20744;50.938;7.286;2022-11-15T13:30:15;4.93;;;1.40;;
34497;SDS011;20744;50.938;7.286;2022-11-15T13:32:46;5.75;;;1.52;;
34497;SDS011;20744;50.938;7.286;2022-11-15T13:35:17;4.75;;;1.40;;
34497;SDS011;20744;50.938;7.286;2022-11-15T13:37:45;3.30;;;1.30;;
34497;SDS011;20744;50.938;7.286;2022-11-15T13:40:18;8.52;;;1.65;;
34497;SDS011;20744;50.938;7.286;2022-11-15T13:42:46;4.82;;;1.70;;
34497;SDS011;20744;50.938;7.286;2022-11-15T13:45:16;3.50;;;1.50;;
34497;SDS011;20744;50.938;7.286;2022-11-15T13:47:43;4.45;;;1.48;;
34497;SDS011;20744;50.938;7.286;2022-11-15T13:50:11;4.68;;;1.50;;
34497;SDS011;20744;50.938;7.286;2022-11-15T13:52:39;3.35;;;1.20;;
34497;SDS011;20744;50.938;7.286;2022-11-15T13:55:09;3.45;;;1.40;;
34497;SDS011;20744;50.938;7.286;2022-11-15T13:57:39;4.78;;;1.38;;
34497;SDS011;20744;50.938;7.286;2022-11-15T14:00:24;3.72;;;1.88;;
34497;SDS011;20744;50.938;7.286;2022-11-15T14:02:51;7.00;;;1.40;;
34497;SDS011;20744;50.938;7.286;2022-11-15T14:05:19;4.50;;;1.27;;
34497;SDS011;20744;50.938;7.286;2022-11-15T14:07:52;2.90;;;1.23;;
34497;SDS011;20744;50.938;7.286;2022-11-15T14:10:24;2.30;;;1.30;;
34497;SDS011;20744;50.938;7.286;2022-11-15T14:12:52;2.28;;;1.30;;
34497;SDS011;20744;50.938;7.286;2022-11-15T14:15:25;4.07;;;1.25;;
34497;SDS011;20744;50.938;7.286;2022-11-15T14:17:53;4.07;;;1.23;;
34497;SDS011;20744;50.938;7.286;2022-11-15T14:20:27;2.30;;;1.20;;
34497;SDS011;20744;50.938;7.286;2022-11-15T14:22:56;4.35;;;1.30;;
34497;SDS011;20744;50.938;7.286;2022-11-15T14:25:24;6.10;;;1.15;;
34497;SDS011;20744;50.938;7.286;2022-11-15T14:28:08;3.28;;;1.40;;
34497;SDS011;20744;50.938;7.286;2022-11-15T14:30:37;3.50;;;1.15;;
34497;SDS011;20744;50.938;7.286;2022-11-15T14:33:14;8.00;;;1.75;;
34497;SDS011;20744;50.938;7.286;2022-11-15T14:35:44;4.03;;;1.30;;
34497;SDS011;20744;50.938;7.286;2022-11-15T14:38:11;5.68;;;1.50;;
34497;SDS011;20744;50.938;7.286;2022-11-15T14:40:41;4.45;;;1.52;;
34497;SDS011;20744;50.938;7.286;2022-11-15T14:43:09;2.60;;;1.30;;
34497;SDS011;20744;50.938;7.286;2022-11-15T14:45:38;3.15;;;1.27;;
34497;SDS011;20744;50.938;7.286;2022-11-15T14:48:06;4.13;;;1.20;;
34497;SDS011;20744;50.938;7.286;2022-11-15T14:50:34;2.38;;;1.20;;
34497;SDS011;20744;50.938;7.286;2022-11-15T14:53:01;3.20;;;1.25;;
34497;SDS011;20744;50.938;7.286;2022-11-15T14:55:29;3.90;;;1.48;;
34497;SDS011;20744;50.938;7.286;2022-11-15T14:58:00;2.83;;;1.27;;
34497;SDS011;20744;50.938;7.286;2022-11-15T15:00:28;2.70;;;1.30;;
34497;SDS011;20744;50.938;7.286;2022-11-15T15:02:57;3.58;;;1.23;;
34497;SDS011;20744;50.938;7.286;2022-11-15T15:05:25;2.95;;;1.30;;
34497;SDS011;20744;50.938;7.286;2022-11-15T15:07:52;1.88;;;1.00;;
34497;SDS011;20744;50.938;7.286;2022-11-15T15:10:20;2.95;;;1.17;;
34497;SDS011;20744;50.938;7.286;2022-11-15T15:12:47;3.95;;;1.10;;
34497;SDS011;20744;50.938;7.286;2022-11-15T15:15:15;3.10;;;1.25;;
34497;SDS011;20744;50.938;7.286;2022-11-15T15:17:43;1.95;;;0.90;;
34497;SDS011;20744;50.938;7.286;2022-11-15T15:20:11;3.05;;;1.08;;
34497;SDS011;20744;50.938;7.286;2022-11-15T15:22:39;2.53;;;1.38;;
34497;SDS011;20744;50.938;7.286;2022-11-15T15:25:22;3.72;;;1.20;;
34497;SDS011;20744;50.938;7.286;2022-11-15T15:27:50;4.30;;;1.30;;
34497;SDS011;20744;50.938;7.286;2022-11-15T15:30:18;2.53;;;1.33;;
34497;SDS011;20744;50.938;7.286;2022-11-15T15:32:45;3.17;;;1.38;;
34497;SDS011;20744;50.938;7.286;2022-11-15T15:35:14;2.67;;;1.20;;
34497;SDS011;20744;50.938;7.286;2022-11-15T15:37:42;6.22;;;1.70;;
34497;SDS011;20744;50.938;7.286;2022-11-15T15:40:10;4.65;;;1.38;;